sensor_id;sensor_type;location;lat;lon;timestamp;pressure;altitude;pressure_sealevel;temperature;humidity
77587;BME280;66744;49.716;17.158;2023-04-29T00:01:25;98825.91;;;11.18;70.51
77587;BME280;66744;49.716;17.158;2023-04-29T00:04:26;98829.63;;;11.24;71.38
77587;BME280;66744;49.716;17.158;2023-04-29T00:07:28;98827.66;;;11.24;70.65
77587;BME280;66744;49.716;17.158;2023-04-29T00:10:29;98826.44;;;11.25;71.35
77587;BME280;66744;49.716;17.158;2023-04-29T00:13:30;98817.75;;;11.27;71.65
77587;BME280;66744;49.716;17.158;2023-04-29T00:16:31;98827.44;;;11.31;72.28
77587;BME280;66744;49.716;17.158;2023-04-29T00:19:33;98819.81;;;11.35;70.92
77587;BME280;66744;49.716;17.158;2023-04-29T00:22:37;98816.28;;;11.35;71.31
77587;BME280;66744;49.716;17.158;2023-04-29T00:25:38;98813.53;;;11.35;72.64
77587;BME280;66744;49.716;17.158;2023-04-29T00:28:39;98816.16;;;11.38;72.61
77587;BME280;66744;49.716;17.158;2023-04-29T00:31:41;98816.94;;;11.39;71.87
77587;BME280;66744;49.716;17.158;2023-04-29T00:34:42;98814.97;;;11.39;72.07
77587;BME280;66744;49.716;17.158;2023-04-29T00:37:43;98816.47;;;11.40;71.65
77587;BME280;66744;49.716;17.158;2023-04-29T00:40:45;98818.47;;;11.40;73.36
77587;BME280;66744;49.716;17.158;2023-04-29T00:43:46;98814.38;;;11.44;70.79
77587;BME280;66744;49.716;17.158;2023-04-29T00:46:49;98813.19;;;11.45;70.62
77587;BME280;66744;49.716;17.158;2023-04-29T00:49:51;98818.22;;;11.47;71.68
77587;BME280;66744;49.716;17.158;2023-04-29T00:52:52;98813.19;;;11.45;71.43
77587;BME280;66744;49.716;17.158;2023-04-29T00:55:55;98817.91;;;11.45;72.66
77587;BME280;66744;49.716;17.158;2023-04-29T00:58:57;98809.78;;;11.41;69.95
77587;BME280;66744;49.716;17.158;2023-04-29T01:02:02;98814.84;;;11.43;71.66
77587;BME280;66744;49.716;17.158;2023-04-29T01:05:04;98806.59;;;11.43;71.83
77587;BME280;66744;49.716;17.158;2023-04-29T01:08:12;98808.22;;;11.40;71.72
77587;BME280;66744;49.716;17.158;2023-04-29T01:11:19;98811.13;;;11.37;70.61
77587;BME280;66744;49.716;17.158;2023-04-29T01:14:24;98811.25;;;11.33;70.36
77587;BME280;66744;49.716;17.158;2023-04-29T01:17:30;98806.94;;;11.32;71.23
77587;BME280;66744;49.716;17.158;2023-04-29T01:20:32;98804.84;;;11.36;71.44
77587;BME280;66744;49.716;17.158;2023-04-29T01:23:34;98807.91;;;11.38;71.16
77587;BME280;66744;49.716;17.158;2023-04-29T01:26:36;98801.22;;;11.39;71.36
77587;BME280;66744;49.716;17.158;2023-04-29T01:37:18;98797.28;;;11.28;72.31
77587;BME280;66744;49.716;17.158;2023-04-29T01:40:31;98793.31;;;11.29;71.49
77587;BME280;66744;49.716;17.158;2023-04-29T01:43:49;98783.34;;;11.22;71.19
77587;BME280;66744;49.716;17.158;2023-04-29T01:46:57;98774.88;;;11.16;73.34
77587;BME280;66744;49.716;17.158;2023-04-29T01:50:07;98776.00;;;11.06;73.42
77587;BME280;66744;49.716;17.158;2023-04-29T01:53:09;98775.34;;;11.02;72.92
77587;BME280;66744;49.716;17.158;2023-04-29T01:56:11;98774.16;;;11.03;71.83
77587;BME280;66744;49.716;17.158;2023-04-29T01:59:31;98758.88;;;11.02;73.91
77587;BME280;66744;49.716;17.158;2023-04-29T02:03:08;98768.66;;;11.03;73.47
77587;BME280;66744;49.716;17.158;2023-04-29T02:06:15;98767.44;;;11.04;73.40
77587;BME280;66744;49.716;17.158;2023-04-29T02:09:16;98762.50;;;10.99;73.90
77587;BME280;66744;49.716;17.158;2023-04-29T02:12:23;98756.69;;;10.97;74.13
77587;BME280;66744;49.716;17.158;2023-04-29T02:15:28;98762.06;;;11.01;73.26
77587;BME280;66744;49.716;17.158;2023-04-29T02:18:29;98763.94;;;11.04;73.68
77587;BME280;66744;49.716;17.158;2023-04-29T02:21:30;98763.59;;;11.02;72.08
77587;BME280;66744;49.716;17.158;2023-04-29T02:24:34;98750.00;;;10.98;73.14
77587;BME280;66744;49.716;17.158;2023-04-29T02:27:36;98745.69;;;10.97;74.22
77587;BME280;66744;49.716;17.158;2023-04-29T02:30:39;98743.72;;;10.98;74.34
77587;BME280;66744;49.716;17.158;2023-04-29T02:33:40;98747.66;;;10.97;74.00
77587;BME280;66744;49.716;17.158;2023-04-29T02:36:43;98741.75;;;10.98;74.55
77587;BME280;66744;49.716;17.158;2023-04-29T02:39:45;98740.19;;;10.97;73.42
77587;BME280;66744;49.716;17.158;2023-04-29T02:42:47;98743.38;;;10.96;74.14
77587;BME280;66744;49.716;17.158;2023-04-29T02:45:48;98745.91;;;10.90;72.46
77587;BME280;66744;49.716;17.158;2023-04-29T02:48:50;98741.66;;;10.89;73.01
77587;BME280;66744;49.716;17.158;2023-04-29T02:51:51;98745.72;;;10.85;73.71
77587;BME280;66744;49.716;17.158;2023-04-29T02:54:52;98748.25;;;10.79;73.07
77587;BME280;66744;49.716;17.158;2023-04-29T02:57:54;98757.94;;;10.84;74.72
77587;BME280;66744;49.716;17.158;2023-04-29T03:00:55;98756.28;;;10.86;74.60
77587;BME280;66744;49.716;17.158;2023-04-29T03:03:57;98754.28;;;10.87;74.46
77587;BME280;66744;49.716;17.158;2023-04-29T03:06:58;98762.41;;;10.90;74.79
77587;BME280;66744;49.716;17.158;2023-04-29T03:10:01;98767.88;;;11.03;73.30
77587;BME280;66744;49.716;17.158;2023-04-29T03:13:03;98766.09;;;11.09;72.89
77587;BME280;66744;49.716;17.158;2023-04-29T03:16:06;98764.56;;;11.08;72.00
77587;BME280;66744;49.716;17.158;2023-04-29T03:19:07;98777.75;;;11.13;72.54
77587;BME280;66744;49.716;17.158;2023-04-29T03:22:09;98776.88;;;11.16;73.70
77587;BME280;66744;49.716;17.158;2023-04-29T03:25:12;98776.09;;;11.15;73.28
77587;BME280;66744;49.716;17.158;2023-04-29T03:28:14;98772.81;;;11.08;73.19
77587;BME280;66744;49.716;17.158;2023-04-29T03:31:16;98771.28;;;11.07;74.14
77587;BME280;66744;49.716;17.158;2023-04-29T03:34:19;98777.09;;;11.09;72.02
77587;BME280;66744;49.716;17.158;2023-04-29T03:37:27;98772.38;;;11.09;73.02
77587;BME280;66744;49.716;17.158;2023-04-29T03:40:38;98790.63;;;11.16;73.09
77587;BME280;66744;49.716;17.158;2023-04-29T03:43:40;98780.06;;;11.14;73.91
77587;BME280;66744;49.716;17.158;2023-04-29T03:46:41;98793.56;;;11.22;72.50
77587;BME280;66744;49.716;17.158;2023-04-29T03:49:42;98785.22;;;11.25;72.07
77587;BME280;66744;49.716;17.158;2023-04-29T03:52:43;98796.41;;;11.31;72.12
77587;BME280;66744;49.716;17.158;2023-04-29T03:55:48;98794.97;;;11.26;73.05
77587;BME280;66744;49.716;17.158;2023-04-29T03:58:51;98796.31;;;11.22;73.43
77587;BME280;66744;49.716;17.158;2023-04-29T04:01:54;98783.97;;;11.26;73.51
77587;BME280;66744;49.716;17.158;2023-04-29T04:04:55;98788.47;;;11.33;73.02
77587;BME280;66744;49.716;17.158;2023-04-29T04:07:56;98789.44;;;11.39;72.24
77587;BME280;66744;49.716;17.158;2023-04-29T04:11:16;98783.47;;;11.40;71.20
77587;BME280;66744;49.716;17.158;2023-04-29T04:14:25;98789.19;;;11.46;72.58
77587;BME280;66744;49.716;17.158;2023-04-29T04:17:26;98795.78;;;11.48;72.53
77587;BME280;66744;49.716;17.158;2023-04-29T04:20:27;98792.56;;;11.50;72.87
77587;BME280;66744;49.716;17.158;2023-04-29T04:23:29;98786.53;;;11.55;73.11
77587;BME280;66744;49.716;17.158;2023-04-29T04:26:30;98784.06;;;11.57;72.95
77587;BME280;66744;49.716;17.158;2023-04-29T04:29:47;98785.16;;;11.59;73.01
77587;BME280;66744;49.716;17.158;2023-04-29T04:32:51;98783.44;;;11.53;71.66
77587;BME280;66744;49.716;17.158;2023-04-29T04:35:52;98787.41;;;11.52;72.98
77587;BME280;66744;49.716;17.158;2023-04-29T04:38:54;98782.81;;;11.49;72.61
77587;BME280;66744;49.716;17.158;2023-04-29T04:41:55;98778.94;;;11.46;73.31
77587;BME280;66744;49.716;17.158;2023-04-29T04:44:57;98774.78;;;11.42;71.75
77587;BME280;66744;49.716;17.158;2023-04-29T04:48:11;98766.03;;;11.34;72.85
77587;BME280;66744;49.716;17.158;2023-04-29T04:51:14;98768.38;;;11.23;73.62
77587;BME280;66744;49.716;17.158;2023-04-29T04:54:17;98772.34;;;11.22;72.65
77587;BME280;66744;49.716;17.158;2023-04-29T04:57:22;98762.56;;;11.21;72.99
77587;BME280;66744;49.716;17.158;2023-04-29T05:00:23;98762.56;;;11.21;73.87
77587;BME280;66744;49.716;17.158;2023-04-29T05:03:25;98774.59;;;11.36;74.13
77587;BME280;66744;49.716;17.158;2023-04-29T05:06:28;98769.72;;;11.40;73.64
77587;BME280;66744;49.716;17.158;2023-04-29T05:09:29;98779.41;;;11.45;73.24
77587;BME280;66744;49.716;17.158;2023-04-29T05:12:30;98769.47;;;11.47;73.68
77587;BME280;66744;49.716;17.158;2023-04-29T05:15:34;98765.34;;;11.43;74.77
77587;BME280;66744;49.716;17.158;2023-04-29T05:18:36;98776.88;;;11.38;74.15
77587;BME280;66744;49.716;17.158;2023-04-29T05:21:38;98774.31;;;11.43;73.73
77587;BME280;66744;49.716;17.158;2023-04-29T05:24:42;98773.59;;;11.43;74.26
77587;BME280;66744;49.716;17.158;2023-04-29T05:27:43;98777.97;;;11.40;72.81
77587;BME280;66744;49.716;17.158;2023-04-29T05:30:50;98784.25;;;11.41;72.67
77587;BME280;66744;49.716;17.158;2023-04-29T05:33:53;98777.66;;;11.38;72.76
77587;BME280;66744;49.716;17.158;2023-04-29T05:36:54;98789.94;;;11.46;73.17
77587;BME280;66744;49.716;17.158;2023-04-29T05:39:57;98788.94;;;11.53;73.32
77587;BME280;66744;49.716;17.158;2023-04-29T05:42:58;98792.03;;;11.55;72.99
77587;BME280;66744;49.716;17.158;2023-04-29T05:45:59;98791.13;;;11.58;74.84
77587;BME280;66744;49.716;17.158;2023-04-29T05:49:01;98794.97;;;11.60;74.02
77587;BME280;66744;49.716;17.158;2023-04-29T05:52:02;98787.13;;;11.59;74.84
77587;BME280;66744;49.716;17.158;2023-04-29T05:55:08;98791.88;;;11.58;74.40
77587;BME280;66744;49.716;17.158;2023-04-29T05:58:11;98791.31;;;11.63;73.72
77587;BME280;66744;49.716;17.158;2023-04-29T06:01:12;98797.72;;;11.60;76.20
77587;BME280;66744;49.716;17.158;2023-04-29T06:04:14;98806.94;;;11.66;75.70
77587;BME280;66744;49.716;17.158;2023-04-29T06:07:33;98805.59;;;11.71;75.01
77587;BME280;66744;49.716;17.158;2023-04-29T06:10:43;98808.53;;;11.77;74.17
77587;BME280;66744;49.716;17.158;2023-04-29T06:13:45;98809.13;;;11.93;74.17
77587;BME280;66744;49.716;17.158;2023-04-29T06:16:49;98802.16;;;12.01;72.85
77587;BME280;66744;49.716;17.158;2023-04-29T06:19:54;98809.03;;;12.06;73.13
77587;BME280;66744;49.716;17.158;2023-04-29T06:22:57;98805.91;;;12.16;70.85
77587;BME280;66744;49.716;17.158;2023-04-29T06:25:59;98803.97;;;12.26;69.87
77587;BME280;66744;49.716;17.158;2023-04-29T06:29:00;98794.69;;;12.42;69.84
77587;BME280;66744;49.716;17.158;2023-04-29T06:32:01;98795.31;;;12.86;69.41
77587;BME280;66744;49.716;17.158;2023-04-29T06:35:02;98803.47;;;13.07;67.53
77587;BME280;66744;49.716;17.158;2023-04-29T06:38:24;98807.28;;;13.01;68.20
77587;BME280;66744;49.716;17.158;2023-04-29T06:41:36;98807.88;;;12.96;68.65
77587;BME280;66744;49.716;17.158;2023-04-29T06:44:58;98801.59;;;12.95;68.47
77587;BME280;66744;49.716;17.158;2023-04-29T06:48:30;98799.91;;;12.89;68.25
77587;BME280;66744;49.716;17.158;2023-04-29T06:51:39;98802.97;;;12.91;68.56
77587;BME280;66744;49.716;17.158;2023-04-29T06:54:42;98797.00;;;12.92;67.92
77587;BME280;66744;49.716;17.158;2023-04-29T06:57:43;98807.88;;;12.96;68.11
77587;BME280;66744;49.716;17.158;2023-04-29T07:00:49;98797.00;;;12.92;66.12
77587;BME280;66744;49.716;17.158;2023-04-29T07:03:50;98804.97;;;12.90;67.35
77587;BME280;66744;49.716;17.158;2023-04-29T07:06:53;98810.31;;;12.85;66.63
77587;BME280;66744;49.716;17.158;2023-04-29T07:09:55;98804.03;;;12.84;67.83
77587;BME280;66744;49.716;17.158;2023-04-29T07:12:57;98809.09;;;12.95;68.21
77587;BME280;66744;49.716;17.158;2023-04-29T07:16:00;98807.84;;;12.87;68.39
77587;BME280;66744;49.716;17.158;2023-04-29T07:19:02;98811.84;;;12.86;67.77
77587;BME280;66744;49.716;17.158;2023-04-29T07:22:05;98804.94;;;12.81;69.78
77587;BME280;66744;49.716;17.158;2023-04-29T07:25:07;98814.59;;;12.76;68.69
77587;BME280;66744;49.716;17.158;2023-04-29T07:28:11;98816.22;;;12.65;68.64
77587;BME280;66744;49.716;17.158;2023-04-29T07:31:12;98814.97;;;12.57;69.23
77587;BME280;66744;49.716;17.158;2023-04-29T07:34:14;98817.41;;;12.55;69.79
77587;BME280;66744;49.716;17.158;2023-04-29T07:37:15;98812.81;;;12.52;71.21
77587;BME280;66744;49.716;17.158;2023-04-29T07:40:17;98804.50;;;12.43;73.21
77587;BME280;66744;49.716;17.158;2023-04-29T07:43:19;98808.75;;;12.35;74.31
77587;BME280;66744;49.716;17.158;2023-04-29T07:46:27;98810.69;;;12.25;75.16
77587;BME280;66744;49.716;17.158;2023-04-29T07:49:34;98818.25;;;12.12;76.01
77587;BME280;66744;49.716;17.158;2023-04-29T07:52:35;98821.28;;;12.05;75.32
77587;BME280;66744;49.716;17.158;2023-04-29T07:55:38;98824.81;;;12.05;77.03
77587;BME280;66744;49.716;17.158;2023-04-29T07:58:40;98824.66;;;12.09;78.05
77587;BME280;66744;49.716;17.158;2023-04-29T08:01:41;98833.31;;;12.20;77.12
77587;BME280;66744;49.716;17.158;2023-04-29T08:04:42;98829.25;;;12.34;76.29
77587;BME280;66744;49.716;17.158;2023-04-29T08:07:48;98840.94;;;12.47;75.44
77587;BME280;66744;49.716;17.158;2023-04-29T08:10:49;98851.38;;;12.52;75.93
77587;BME280;66744;49.716;17.158;2023-04-29T08:13:51;98866.06;;;12.49;73.91
77587;BME280;66744;49.716;17.158;2023-04-29T08:16:52;98871.69;;;12.45;74.19
77587;BME280;66744;49.716;17.158;2023-04-29T08:19:55;98879.47;;;12.38;74.16
77587;BME280;66744;49.716;17.158;2023-04-29T08:22:57;98880.94;;;12.30;75.13
77587;BME280;66744;49.716;17.158;2023-04-29T08:26:00;98875.44;;;12.30;75.87
77587;BME280;66744;49.716;17.158;2023-04-29T08:29:03;98874.47;;;12.23;76.16
77587;BME280;66744;49.716;17.158;2023-04-29T08:32:04;98879.47;;;12.16;75.40
77587;BME280;66744;49.716;17.158;2023-04-29T08:35:06;98876.72;;;12.16;74.92
77587;BME280;66744;49.716;17.158;2023-04-29T08:38:13;98883.31;;;12.18;76.08
77587;BME280;66744;49.716;17.158;2023-04-29T08:41:16;98886.72;;;12.22;75.74
77587;BME280;66744;49.716;17.158;2023-04-29T08:44:18;98878.59;;;12.19;76.83
77587;BME280;66744;49.716;17.158;2023-04-29T08:47:19;98867.81;;;12.12;76.72
77587;BME280;66744;49.716;17.158;2023-04-29T08:50:21;98856.19;;;12.08;77.78
77587;BME280;66744;49.716;17.158;2023-04-29T08:53:24;98851.88;;;12.07;78.80
77587;BME280;66744;49.716;17.158;2023-04-29T08:56:27;98843.31;;;12.05;79.13
77587;BME280;66744;49.716;17.158;2023-04-29T08:59:31;98847.41;;;12.00;80.10
77587;BME280;66744;49.716;17.158;2023-04-29T09:02:32;98847.41;;;12.00;78.99
77587;BME280;66744;49.716;17.158;2023-04-29T09:05:40;98854.44;;;12.01;80.38
77587;BME280;66744;49.716;17.158;2023-04-29T09:08:43;98863.59;;;11.98;80.49
77587;BME280;66744;49.716;17.158;2023-04-29T09:11:50;98858.09;;;11.98;81.25
77587;BME280;66744;49.716;17.158;2023-04-29T09:14:55;98861.94;;;12.01;81.55
77587;BME280;66744;49.716;17.158;2023-04-29T09:21:53;98859.19;;;12.22;80.32
77587;BME280;66744;49.716;17.158;2023-04-29T09:25:11;98846.69;;;12.31;79.67
77587;BME280;66744;49.716;17.158;2023-04-29T09:28:15;98850.13;;;12.44;80.31
77587;BME280;66744;49.716;17.158;2023-04-29T09:31:26;98847.47;;;12.62;78.82
77587;BME280;66744;49.716;17.158;2023-04-29T09:34:34;98850.13;;;12.83;78.31
77587;BME280;66744;49.716;17.158;2023-04-29T09:37:37;98854.69;;;13.08;79.08
77587;BME280;66744;49.716;17.158;2023-04-29T09:40:39;98857.94;;;13.34;77.27
77587;BME280;66744;49.716;17.158;2023-04-29T09:43:43;98859.66;;;13.59;77.62
77587;BME280;66744;49.716;17.158;2023-04-29T09:50:10;98855.66;;;14.05;75.21
77587;BME280;66744;49.716;17.158;2023-04-29T09:53:27;98860.72;;;14.34;75.70
77587;BME280;66744;49.716;17.158;2023-04-29T09:56:47;98856.78;;;14.59;73.75
77587;BME280;66744;49.716;17.158;2023-04-29T09:59:49;98851.69;;;14.66;73.10
77587;BME280;66744;49.716;17.158;2023-04-29T10:02:52;98850.41;;;14.76;71.32
77587;BME280;66744;49.716;17.158;2023-04-29T10:05:56;98856.88;;;15.06;71.95
77587;BME280;66744;49.716;17.158;2023-04-29T10:08:58;98854.78;;;15.25;71.75
77587;BME280;66744;49.716;17.158;2023-04-29T10:12:01;98845.38;;;15.31;71.11
77587;BME280;66744;49.716;17.158;2023-04-29T10:15:17;98848.09;;;15.40;71.44
77587;BME280;66744;49.716;17.158;2023-04-29T10:18:21;98843.13;;;15.44;70.02
77587;BME280;66744;49.716;17.158;2023-04-29T10:21:29;98854.94;;;15.54;69.26
77587;BME280;66744;49.716;17.158;2023-04-29T10:24:31;98853.91;;;15.42;69.14
77587;BME280;66744;49.716;17.158;2023-04-29T10:27:36;98853.56;;;15.73;69.91
77587;BME280;66744;49.716;17.158;2023-04-29T10:30:37;98856.09;;;16.00;68.02
77587;BME280;66744;49.716;17.158;2023-04-29T10:33:42;98866.34;;;16.38;68.57
77587;BME280;66744;49.716;17.158;2023-04-29T10:36:48;98857.06;;;16.41;67.36
77587;BME280;66744;49.716;17.158;2023-04-29T10:39:51;98858.22;;;16.35;67.65
77587;BME280;66744;49.716;17.158;2023-04-29T10:42:57;98845.22;;;16.26;66.12
77587;BME280;66744;49.716;17.158;2023-04-29T10:46:18;98837.66;;;16.41;65.53
77587;BME280;66744;49.716;17.158;2023-04-29T10:49:20;98843.97;;;16.71;67.67
77587;BME280;66744;49.716;17.158;2023-04-29T10:52:21;98850.44;;;16.83;65.50
77587;BME280;66744;49.716;17.158;2023-04-29T10:55:23;98848.91;;;16.82;66.85
77587;BME280;66744;49.716;17.158;2023-04-29T10:58:44;98847.31;;;16.60;66.47
77587;BME280;66744;49.716;17.158;2023-04-29T11:01:48;98829.34;;;16.27;66.27
77587;BME280;66744;49.716;17.158;2023-04-29T11:05:09;98833.16;;;16.29;66.80
77587;BME280;66744;49.716;17.158;2023-04-29T11:08:14;98837.25;;;16.48;67.44
77587;BME280;66744;49.716;17.158;2023-04-29T11:11:23;98832.69;;;16.60;68.00
77587;BME280;66744;49.716;17.158;2023-04-29T11:17:36;98825.13;;;17.10;66.34
77587;BME280;66744;49.716;17.158;2023-04-29T11:21:18;98830.69;;;17.30;64.32
77587;BME280;66744;49.716;17.158;2023-04-29T11:24:18;98825.63;;;17.49;65.55
77587;BME280;66744;49.716;17.158;2023-04-29T11:27:24;98828.75;;;17.76;63.09
77587;BME280;66744;49.716;17.158;2023-04-29T11:30:27;98839.41;;;18.04;63.29
77587;BME280;66744;49.716;17.158;2023-04-29T11:33:31;98835.38;;;17.85;62.44
77587;BME280;66744;49.716;17.158;2023-04-29T11:36:33;98827.81;;;17.85;63.79
77587;BME280;66744;49.716;17.158;2023-04-29T11:39:35;98834.72;;;17.90;64.04
77587;BME280;66744;49.716;17.158;2023-04-29T11:42:42;98827.66;;;17.68;63.52
77587;BME280;66744;49.716;17.158;2023-04-29T11:45:44;98824.66;;;17.52;64.47
77587;BME280;66744;49.716;17.158;2023-04-29T11:48:46;98835.97;;;17.48;64.22
77587;BME280;66744;49.716;17.158;2023-04-29T11:51:48;98833.78;;;17.17;64.55
77587;BME280;66744;49.716;17.158;2023-04-29T11:54:51;98832.53;;;16.98;65.14
77587;BME280;66744;49.716;17.158;2023-04-29T11:57:56;98831.34;;;17.05;66.30
77587;BME280;66744;49.716;17.158;2023-04-29T12:00:57;98830.88;;;17.06;64.93
77587;BME280;66744;49.716;17.158;2023-04-29T12:03:58;98837.47;;;17.09;63.83
77587;BME280;66744;49.716;17.158;2023-04-29T12:07:02;98828.09;;;17.27;65.42
77587;BME280;66744;49.716;17.158;2023-04-29T12:10:08;98830.78;;;17.56;62.64
77587;BME280;66744;49.716;17.158;2023-04-29T12:13:10;98829.41;;;17.92;62.87
77587;BME280;66744;49.716;17.158;2023-04-29T12:16:14;98824.88;;;17.94;61.16
77587;BME280;66744;49.716;17.158;2023-04-29T12:19:15;98820.34;;;17.97;62.35
77587;BME280;66744;49.716;17.158;2023-04-29T12:22:18;98810.09;;;17.83;62.17
77587;BME280;66744;49.716;17.158;2023-04-29T12:25:24;98815.56;;;17.97;61.79
77587;BME280;66744;49.716;17.158;2023-04-29T12:28:25;98804.72;;;18.56;58.79
77587;BME280;66744;49.716;17.158;2023-04-29T12:31:33;98804.47;;;18.54;60.61
77587;BME280;66744;49.716;17.158;2023-04-29T12:34:34;98815.88;;;18.30;59.09
77587;BME280;66744;49.716;17.158;2023-04-29T12:37:36;98806.81;;;18.04;61.84
77587;BME280;66744;49.716;17.158;2023-04-29T12:40:37;98804.06;;;17.84;61.32
77587;BME280;66744;49.716;17.158;2023-04-29T12:43:38;98798.72;;;17.81;60.87
77587;BME280;66744;49.716;17.158;2023-04-29T12:46:40;98801.59;;;17.66;61.56
77587;BME280;66744;49.716;17.158;2023-04-29T12:49:45;98789.47;;;17.63;62.32
77587;BME280;66744;49.716;17.158;2023-04-29T12:52:46;98788.41;;;17.61;61.28
77587;BME280;66744;49.716;17.158;2023-04-29T12:55:49;98789.78;;;17.51;62.65
77587;BME280;66744;49.716;17.158;2023-04-29T12:58:51;98774.28;;;17.64;62.07
77587;BME280;66744;49.716;17.158;2023-04-29T13:01:52;98780.97;;;17.72;60.51
77587;BME280;66744;49.716;17.158;2023-04-29T13:04:53;98783.94;;;18.20;59.95
77587;BME280;66744;49.716;17.158;2023-04-29T13:07:55;98791.16;;;18.64;59.03
77587;BME280;66744;49.716;17.158;2023-04-29T13:10:56;98796.59;;;18.84;58.93
77587;BME280;66744;49.716;17.158;2023-04-29T13:13:57;98795.09;;;18.88;57.79
77587;BME280;66744;49.716;17.158;2023-04-29T13:16:59;98794.59;;;18.90;57.24
77587;BME280;66744;49.716;17.158;2023-04-29T13:20:00;98789.59;;;19.00;58.44
77587;BME280;66744;49.716;17.158;2023-04-29T13:23:01;98798.91;;;18.91;57.39
77587;BME280;66744;49.716;17.158;2023-04-29T13:26:03;98799.69;;;18.55;58.70
77587;BME280;66744;49.716;17.158;2023-04-29T13:29:07;98799.91;;;18.25;58.74
77587;BME280;66744;49.716;17.158;2023-04-29T13:32:08;98791.38;;;18.03;60.30
77587;BME280;66744;49.716;17.158;2023-04-29T13:35:10;98793.31;;;17.97;59.92
77587;BME280;66744;49.716;17.158;2023-04-29T13:38:11;98796.78;;;17.87;60.46
77587;BME280;66744;49.716;17.158;2023-04-29T13:41:13;98799.03;;;17.62;62.03
77587;BME280;66744;49.716;17.158;2023-04-29T13:44:15;98795.06;;;17.49;61.81
77587;BME280;66744;49.716;17.158;2023-04-29T13:47:16;98794.44;;;17.39;62.79
77587;BME280;66744;49.716;17.158;2023-04-29T13:50:17;98792.84;;;17.33;63.31
77587;BME280;66744;49.716;17.158;2023-04-29T13:53:19;98780.56;;;17.19;64.02
77587;BME280;66744;49.716;17.158;2023-04-29T13:56:20;98787.69;;;17.26;62.96
77587;BME280;66744;49.716;17.158;2023-04-29T13:59:22;98789.78;;;17.51;63.01
77587;BME280;66744;49.716;17.158;2023-04-29T14:02:23;98799.09;;;17.48;62.85
77587;BME280;66744;49.716;17.158;2023-04-29T14:05:24;98806.66;;;17.27;63.57
77587;BME280;66744;49.716;17.158;2023-04-29T14:08:26;98809.97;;;17.11;63.83
77587;BME280;66744;49.716;17.158;2023-04-29T14:11:27;98805.63;;;16.90;62.44
77587;BME280;66744;49.716;17.158;2023-04-29T14:14:30;98801.44;;;16.94;63.81
77587;BME280;66744;49.716;17.158;2023-04-29T14:17:31;98796.22;;;17.02;64.66
77587;BME280;66744;49.716;17.158;2023-04-29T14:20:32;98798.09;;;17.10;62.51
77587;BME280;66744;49.716;17.158;2023-04-29T14:23:34;98801.66;;;17.11;62.89
77587;BME280;66744;49.716;17.158;2023-04-29T14:26:36;98805.19;;;17.11;63.55
77587;BME280;66744;49.716;17.158;2023-04-29T14:29:37;98812.81;;;17.16;64.00
77587;BME280;66744;49.716;17.158;2023-04-29T14:32:38;98811.00;;;17.13;63.39
77587;BME280;66744;49.716;17.158;2023-04-29T14:35:39;98806.16;;;17.08;64.26
77587;BME280;66744;49.716;17.158;2023-04-29T14:38:41;98802.75;;;16.99;65.30
77587;BME280;66744;49.716;17.158;2023-04-29T14:41:42;98809.88;;;16.85;66.18
77587;BME280;66744;49.716;17.158;2023-04-29T14:44:43;98802.06;;;16.69;66.57
77587;BME280;66744;49.716;17.158;2023-04-29T14:47:44;98814.81;;;16.61;66.62
77587;BME280;66744;49.716;17.158;2023-04-29T14:50:46;98806.09;;;16.53;66.27
77587;BME280;66744;49.716;17.158;2023-04-29T14:53:48;98808.22;;;16.44;68.26
77587;BME280;66744;49.716;17.158;2023-04-29T14:56:49;98816.34;;;16.47;69.21
77587;BME280;66744;49.716;17.158;2023-04-29T14:59:50;98820.44;;;16.37;69.89
77587;BME280;66744;49.716;17.158;2023-04-29T15:02:51;98813.78;;;16.15;71.50
77587;BME280;66744;49.716;17.158;2023-04-29T15:05:55;98813.75;;;16.00;72.57
77587;BME280;66744;49.716;17.158;2023-04-29T15:08:58;98802.00;;;15.90;72.33
77587;BME280;66744;49.716;17.158;2023-04-29T15:12:00;98810.50;;;15.87;74.97
77587;BME280;66744;49.716;17.158;2023-04-29T15:15:02;98807.53;;;15.90;73.71
77587;BME280;66744;49.716;17.158;2023-04-29T15:18:03;98807.28;;;16.03;74.34
77587;BME280;66744;49.716;17.158;2023-04-29T15:21:08;98811.00;;;16.15;74.29
77587;BME280;66744;49.716;17.158;2023-04-29T15:24:11;98808.78;;;16.19;73.98
77587;BME280;66744;49.716;17.158;2023-04-29T15:27:34;98802.28;;;16.22;73.02
77587;BME280;66744;49.716;17.158;2023-04-29T15:30:38;98800.75;;;16.35;73.55
77587;BME280;66744;49.716;17.158;2023-04-29T15:33:41;98809.47;;;16.28;73.68
77587;BME280;66744;49.716;17.158;2023-04-29T15:36:43;98808.59;;;16.22;74.23
77587;BME280;66744;49.716;17.158;2023-04-29T15:39:44;98814.31;;;16.19;73.15
77587;BME280;66744;49.716;17.158;2023-04-29T15:42:45;98808.22;;;16.15;72.64
77587;BME280;66744;49.716;17.158;2023-04-29T15:45:47;98801.72;;;16.03;74.48
77587;BME280;66744;49.716;17.158;2023-04-29T15:48:48;98798.19;;;16.02;73.96
77587;BME280;66744;49.716;17.158;2023-04-29T15:51:49;98792.25;;;16.09;74.25
77587;BME280;66744;49.716;17.158;2023-04-29T15:54:50;98788.34;;;16.16;73.43
77587;BME280;66744;49.716;17.158;2023-04-29T15:57:52;98799.63;;;16.27;73.54
77587;BME280;66744;49.716;17.158;2023-04-29T16:00:53;98812.53;;;16.45;73.40
77587;BME280;66744;49.716;17.158;2023-04-29T16:03:54;98808.28;;;16.64;73.50
77587;BME280;66744;49.716;17.158;2023-04-29T16:06:55;98815.47;;;16.71;72.66
77587;BME280;66744;49.716;17.158;2023-04-29T16:09:57;98813.72;;;16.73;72.31
77587;BME280;66744;49.716;17.158;2023-04-29T16:12:58;98812.69;;;16.71;71.45
77587;BME280;66744;49.716;17.158;2023-04-29T16:16:00;98821.59;;;16.75;71.46
77587;BME280;66744;49.716;17.158;2023-04-29T16:19:02;98821.84;;;16.77;72.17